createdAt,value
2017-06-14T00:00:28.523Z,50.37
2017-06-14T00:01:28.523Z,50.37
2017-06-14T00:02:28.519Z,50.27
2017-06-14T00:03:28.516Z,50.85
2017-06-14T00:04:28.514Z,50.18
2017-06-14T00:05:28.515Z,50.76
2017-06-14T00:06:28.512Z,50.46
2017-06-14T00:07:28.508Z,50.56
2017-06-14T00:08:28.508Z,50.56
2017-06-14T00:09:28.508Z,50.76
2017-06-14T00:10:28.197Z,50.56
2017-06-14T00:11:28.506Z,50.56
2017-06-14T00:12:28.509Z,50.66
2017-06-14T00:13:28.497Z,50.66
2017-06-14T00:14:28.498Z,50.76
2017-06-14T00:15:28.492Z,50.95
2017-06-14T00:16:28.203Z,50.76
2017-06-14T00:17:28.491Z,50.85
2017-06-14T00:18:28.490Z,50.95
2017-06-14T00:19:28.484Z,50.95
2017-06-14T00:20:28.484Z,51.43
2017-06-14T00:21:28.484Z,50.95
2017-06-14T00:22:28.482Z,50.46
2017-06-14T00:23:28.481Z,50.46
2017-06-14T00:24:28.477Z,50.85
2017-06-14T00:25:28.475Z,50.46
2017-06-14T00:26:28.472Z,50.85
2017-06-14T00:27:28.470Z,50.66
2017-06-14T00:28:28.468Z,50.56
2017-06-14T00:29:28.467Z,50.76
2017-06-14T00:30:28.463Z,50.66
2017-06-14T00:31:28.459Z,51.04
2017-06-14T00:32:28.458Z,50.66
2017-06-14T00:33:28.153Z,50.66
2017-06-14T00:34:28.457Z,50.76
2017-06-14T00:35:28.455Z,50.66
2017-06-14T00:36:28.148Z,50.56
2017-06-14T00:37:28.451Z,50.66
2017-06-14T00:38:28.145Z,50.66
2017-06-14T00:39:28.448Z,50.56
2017-06-14T00:40:28.442Z,50.37
2017-06-14T00:41:28.446Z,50.56
2017-06-14T00:42:28.134Z,50.85
2017-06-14T00:43:28.438Z,50.56
2017-06-14T00:44:28.131Z,50.85
2017-06-14T00:45:28.128Z,50.66
2017-06-14T00:46:28.435Z,51.04
2017-06-14T00:47:28.430Z,51.14
2017-06-14T00:48:28.429Z,51.43
2017-06-14T00:49:28.427Z,51.23
2017-06-14T00:50:28.122Z,51.5
2017-06-14T00:51:28.427Z,51.72
2017-06-14T00:52:28.420Z,51.59
2017-06-14T00:53:28.417Z,51.4
2017-06-14T00:54:28.420Z,51.11
2017-06-14T00:55:28.448Z,51.62
2017-06-14T00:56:28.410Z,52.17
2017-06-14T00:57:28.408Z,51.79
2017-06-14T00:58:28.407Z,51.98
2017-06-14T00:59:28.407Z,51.98
2017-06-14T01:00:28.404Z,52.08
2017-06-14T01:01:28.403Z,52.17
2017-06-14T01:02:28.382Z,51.88
2017-06-14T01:03:28.382Z,52.36
2017-06-14T01:04:28.379Z,52.46
2017-06-14T01:05:28.376Z,52.36
2017-06-14T01:06:28.071Z,52.36
2017-06-14T01:07:28.373Z,52.36
2017-06-14T01:08:28.369Z,52.75
2017-06-14T01:09:28.402Z,52.36
2017-06-14T01:10:28.368Z,52.55
2017-06-14T01:11:28.364Z,52.46
2017-06-14T01:12:28.365Z,53.23
2017-06-14T01:13:28.360Z,52.84
2017-06-14T01:14:28.361Z,53.13
2017-06-14T01:15:28.051Z,52.94
2017-06-14T01:16:28.051Z,52.46
2017-06-14T01:17:28.352Z,52.65
2017-06-14T01:18:28.350Z,52.36
2017-06-14T01:19:28.347Z,52.26
2017-06-14T01:20:28.043Z,52.75
2017-06-14T01:21:28.345Z,52.65
2017-06-14T01:22:28.041Z,52.46
2017-06-14T01:23:28.340Z,51.98
2017-06-14T01:24:28.342Z,51.88
2017-06-14T01:25:28.336Z,52.08
2017-06-14T01:26:28.332Z,51.88
2017-06-14T01:27:28.332Z,52.26
2017-06-14T01:28:28.030Z,51.88
2017-06-14T01:29:28.025Z,52.17
2017-06-14T01:30:28.327Z,51.98
2017-06-14T01:31:28.323Z,51.88
2017-06-14T01:32:28.020Z,51.79
2017-06-14T01:33:28.322Z,51.98
2017-06-14T01:34:28.317Z,52.08
2017-06-14T01:35:28.316Z,52.26
2017-06-14T01:36:28.010Z,52.17
2017-06-14T01:37:28.310Z,52.17
2017-06-14T01:38:28.310Z,52.17
2017-06-14T01:39:28.308Z,52.17
2017-06-14T01:40:28.303Z,52.17
2017-06-14T01:41:28.301Z,52.75
2017-06-14T01:42:28.299Z,52.55
2017-06-14T01:43:28.299Z,52.46
2017-06-14T01:44:28.297Z,52.84
2017-06-14T01:45:27.993Z,52.55
2017-06-14T01:46:28.292Z,52.55
2017-06-14T01:47:28.289Z,52.75
2017-06-14T01:48:28.288Z,52.94
2017-06-14T01:49:28.284Z,53.23
2017-06-14T01:50:28.281Z,52.94
2017-06-14T01:51:28.288Z,53.2
2017-06-14T01:52:28.279Z,53.11
2017-06-14T01:53:28.276Z,52.81
2017-06-14T01:54:27.971Z,52.81
2017-06-14T01:55:28.275Z,52.81
2017-06-14T01:56:28.269Z,53.01
2017-06-14T01:57:28.268Z,52.81
2017-06-14T01:58:28.270Z,53.3
2017-06-14T01:59:27.962Z,53.68
2017-06-14T02:00:28.263Z,53.58
2017-06-14T02:01:28.262Z,53.39
2017-06-14T02:02:28.258Z,53.68
2017-06-14T02:03:28.256Z,53.87
2017-06-14T02:04:28.254Z,53.58
2017-06-14T02:05:28.254Z,53.39
2017-06-14T02:06:28.249Z,53.68
2017-06-14T02:07:28.245Z,53.58
2017-06-14T02:08:28.246Z,53.58
2017-06-14T02:09:28.243Z,53.39
2017-06-14T02:10:28.240Z,53.49
2017-06-14T02:11:28.238Z,53.39
2017-06-14T02:12:28.237Z,53.39
2017-06-14T02:13:28.237Z,53.68
2017-06-14T02:14:28.232Z,53.2
2017-06-14T02:15:28.229Z,53.49
2017-06-14T02:16:28.229Z,53.49
2017-06-14T02:17:28.225Z,53.3
2017-06-14T02:18:27.921Z,53.58
2017-06-14T02:19:28.221Z,53.58
2017-06-14T02:20:28.223Z,53.49
2017-06-14T02:21:28.216Z,53.49
2017-06-14T02:22:28.214Z,53.49
2017-06-14T02:23:27.911Z,53.49
2017-06-14T02:24:28.208Z,53.3
2017-06-14T02:25:28.209Z,53.58
2017-06-14T02:26:28.205Z,53.58
2017-06-14T02:27:28.203Z,53.58
2017-06-14T02:28:28.200Z,52.72
2017-06-14T02:29:28.201Z,52.81
2017-06-14T02:30:28.197Z,53.01
2017-06-14T02:31:28.197Z,53.11
2017-06-14T02:32:28.194Z,53.2
2017-06-14T02:33:28.190Z,52.91
2017-06-14T02:34:28.187Z,53.11
2017-06-14T02:35:28.187Z,52.81
2017-06-14T02:36:28.185Z,52.81
2017-06-14T02:37:28.185Z,52.91
2017-06-14T02:38:28.181Z,52.91
2017-06-14T02:39:28.212Z,52.72
2017-06-14T02:40:28.176Z,53.01
2017-06-14T02:41:27.870Z,53.01
2017-06-14T02:42:28.170Z,52.34
2017-06-14T02:43:28.170Z,52.81
2017-06-14T02:44:28.174Z,52.43
2017-06-14T02:45:27.859Z,53.11
2017-06-14T02:46:28.165Z,52.91
2017-06-14T02:47:28.159Z,53.39
2017-06-14T02:48:28.157Z,53.49
2017-06-14T02:49:28.156Z,53.39
2017-06-14T02:50:27.850Z,53.3
2017-06-14T02:51:28.150Z,53.58
2017-06-14T02:52:28.148Z,53.3
2017-06-14T02:53:28.148Z,53.68
2017-06-14T02:54:28.145Z,53.58
2017-06-14T02:55:28.143Z,53.49
2017-06-14T02:56:28.142Z,53.66
2017-06-14T02:57:28.138Z,53.68
2017-06-14T02:58:28.137Z,53.39
2017-06-14T02:59:28.135Z,53.39
2017-06-14T03:00:28.133Z,53.68
2017-06-14T03:01:28.133Z,53.39
2017-06-14T03:02:28.131Z,53.87
2017-06-14T03:03:28.126Z,53.3
2017-06-14T03:04:28.123Z,53.2
2017-06-14T03:05:28.121Z,53.49
2017-06-14T03:06:27.818Z,53.3
2017-06-14T03:07:28.117Z,53.36
2017-06-14T03:08:27.813Z,53.68
2017-06-14T03:09:28.111Z,53.58
2017-06-14T03:10:28.111Z,53.2
2017-06-14T03:11:27.808Z,53.58
2017-06-14T03:12:27.804Z,54.06
2017-06-14T03:13:27.802Z,53.56
2017-06-14T03:14:28.102Z,53.3
2017-06-14T03:15:27.796Z,53.68
2017-06-14T03:16:28.097Z,53.49
2017-06-14T03:17:28.096Z,53.46
2017-06-14T03:18:27.793Z,53.66
2017-06-14T03:19:28.091Z,53.66
2017-06-14T03:20:27.784Z,53.36
2017-06-14T03:21:28.087Z,54.25
2017-06-14T03:22:27.782Z,53.85
2017-06-14T03:23:28.080Z,53.97
2017-06-14T03:24:28.081Z,53.94
2017-06-14T03:25:28.077Z,53.27
2017-06-14T03:26:28.075Z,53.66
2017-06-14T03:27:28.077Z,53.68
2017-06-14T03:28:27.767Z,54.04
2017-06-14T03:29:27.769Z,53.85
2017-06-14T03:30:28.068Z,53.94
2017-06-14T03:31:28.064Z,53.85
2017-06-14T03:32:28.063Z,53.75
2017-06-14T03:33:27.763Z,53.56
2017-06-14T03:34:28.057Z,54.23
2017-06-14T03:35:27.751Z,53.94
2017-06-14T03:36:27.752Z,54.13
2017-06-14T03:37:27.748Z,53.85
2017-06-14T03:38:28.049Z,54.23
2017-06-14T03:39:28.047Z,54.33
2017-06-14T03:40:27.743Z,54.23
2017-06-14T03:41:27.737Z,53.94
2017-06-14T03:42:27.738Z,53.75
2017-06-14T03:43:28.039Z,53.75
2017-06-14T03:44:28.036Z,54.13
2017-06-14T03:45:27.730Z,53.94
2017-06-14T03:46:27.730Z,54.13
2017-06-14T03:47:28.027Z,54.23
2017-06-14T03:48:28.029Z,54.33
2017-06-14T03:49:28.026Z,54.23
2017-06-14T03:50:27.721Z,54.23
2017-06-14T03:51:28.021Z,54.04
2017-06-14T03:52:28.020Z,54.33
2017-06-14T03:53:28.017Z,54.33
2017-06-14T03:54:28.016Z,54.23
2017-06-14T03:55:28.014Z,54.23
2017-06-14T03:56:27.707Z,54.13
2017-06-14T03:57:28.008Z,54.33
2017-06-14T03:58:28.005Z,53.94
2017-06-14T03:59:28.003Z,54.13
2017-06-14T04:00:28.001Z,54.33
2017-06-14T04:01:28.000Z,54.33
2017-06-14T04:02:27.999Z,54.71
2017-06-14T04:03:27.692Z,54.42
2017-06-14T04:04:27.993Z,54.61
2017-06-14T04:05:27.991Z,54.42
2017-06-14T04:06:27.686Z,54.52
2017-06-14T04:07:27.683Z,54.52
2017-06-14T04:08:27.680Z,55.29
2017-06-14T04:09:27.988Z,55.1
2017-06-14T04:10:27.979Z,55.19
2017-06-14T04:11:28.004Z,55.19
2017-06-14T04:12:27.674Z,55.19
2017-06-14T04:13:27.972Z,55.19
2017-06-14T04:14:27.970Z,55.19
2017-06-14T04:15:27.970Z,55.38
2017-06-14T04:16:27.668Z,55.38
2017-06-14T04:17:27.967Z,54.61
2017-06-14T04:18:27.963Z,54.61
2017-06-14T04:19:27.960Z,54.61
2017-06-14T04:20:27.960Z,54.52
2017-06-14T04:21:27.957Z,54.33
2017-06-14T04:22:27.956Z,54.42
2017-06-14T04:23:27.650Z,54.55
2017-06-14T04:24:27.652Z,54.93
2017-06-14T04:25:27.950Z,54.74
2017-06-14T04:26:27.648Z,54.9
2017-06-14T04:27:27.945Z,54.83
2017-06-14T04:28:27.944Z,54.64
2017-06-14T04:29:27.943Z,54.35
2017-06-14T04:30:27.941Z,54.16
2017-06-14T04:31:27.939Z,53.58
2017-06-14T04:32:27.632Z,53.58
2017-06-14T04:33:27.934Z,53.68
2017-06-14T04:34:27.933Z,53.42
2017-06-14T04:35:27.629Z,52.46
2017-06-14T04:36:27.930Z,52.36
2017-06-14T04:37:27.926Z,51.43
2017-06-14T04:38:27.927Z,50.87
2017-06-14T04:39:27.622Z,50.4
2017-06-14T04:40:27.923Z,50.01
2017-06-14T04:41:27.923Z,49.82
2017-06-14T04:42:27.619Z,49.27
2017-06-14T04:43:27.917Z,49.07
2017-06-14T04:44:27.619Z,49.07
2017-06-14T04:45:27.916Z,49.43
2017-06-14T04:46:27.918Z,49.63
2017-06-14T04:47:27.912Z,50.1
2017-06-14T04:48:27.610Z,50.59
2017-06-14T04:49:27.908Z,50.68
2017-06-14T04:50:27.907Z,50.95
2017-06-14T04:51:27.909Z,51.33
2017-06-14T04:52:27.904Z,51.33
2017-06-14T04:53:27.602Z,51.43
2017-06-14T04:54:27.905Z,51.91
2017-06-14T04:55:27.904Z,51.88
2017-06-14T04:56:27.900Z,52.65
2017-06-14T04:57:27.598Z,52.46
2017-06-14T04:58:27.896Z,52.36
2017-06-14T04:59:27.895Z,52.36
2017-06-14T05:00:27.594Z,52.65
2017-06-14T05:01:27.892Z,53.32
2017-06-14T05:02:27.892Z,52.84
2017-06-14T05:03:27.891Z,52.84
2017-06-14T05:04:27.889Z,52.65
2017-06-14T05:05:27.888Z,52.55
2017-06-14T05:06:27.888Z,52.55
2017-06-14T05:07:27.885Z,53.23
2017-06-14T05:08:27.883Z,53.03
2017-06-14T05:09:27.880Z,53.13
2017-06-14T05:10:27.879Z,53.13
2017-06-14T05:11:27.878Z,53.13
2017-06-14T05:12:27.877Z,52.84
2017-06-14T05:13:27.875Z,52.55
2017-06-14T05:14:27.571Z,52.46
2017-06-14T05:15:27.873Z,52.46
2017-06-14T05:16:27.871Z,52.48
2017-06-14T05:17:27.874Z,52.68
2017-06-14T05:18:27.568Z,52.68
2017-06-14T05:19:27.866Z,52.29
2017-06-14T05:20:27.864Z,52.1
2017-06-14T05:21:27.561Z,52.1
2017-06-14T05:22:27.865Z,52.29
2017-06-14T05:23:27.860Z,52.2
2017-06-14T05:24:27.859Z,52.1
2017-06-14T05:25:27.557Z,52.29
2017-06-14T05:26:27.556Z,52.2
2017-06-14T05:27:27.858Z,52.29
2017-06-14T05:28:27.856Z,52.1
2017-06-14T05:29:27.856Z,51.91
2017-06-14T05:30:27.853Z,52.03
2017-06-14T05:31:27.852Z,52.48
2017-06-14T05:32:27.850Z,52.39
2017-06-14T05:33:27.847Z,52.48
2017-06-14T05:34:27.847Z,52.39
2017-06-14T05:35:27.846Z,51.72
2017-06-14T05:36:27.849Z,52.42
2017-06-14T05:37:27.842Z,52.12
2017-06-14T05:38:27.840Z,52.22
2017-06-14T05:39:27.542Z,52.8
2017-06-14T05:40:27.838Z,52.42
2017-06-14T05:41:27.839Z,52.99
2017-06-14T05:42:27.835Z,52.8
2017-06-14T05:43:27.529Z,53.38
2017-06-14T05:44:27.834Z,53.57
2017-06-14T05:45:27.829Z,53.47
2017-06-14T05:46:27.829Z,53.02
2017-06-14T05:47:27.828Z,52.83
2017-06-14T05:48:27.829Z,52.25
2017-06-14T05:49:27.824Z,52.27
2017-06-14T05:50:27.823Z,51.98
2017-06-14T05:51:27.824Z,51.12
2017-06-14T05:52:27.822Z,50.54
2017-06-14T05:53:27.821Z,50.18
2017-06-14T05:54:27.820Z,49.79
2017-06-14T05:55:27.818Z,49.05
2017-06-14T05:56:27.814Z,47.8
2017-06-14T05:57:27.816Z,48.18
2017-06-14T05:58:27.814Z,47.22
2017-06-14T05:59:27.818Z,46.56
2017-06-14T06:00:27.836Z,45.79
2017-06-14T06:01:27.828Z,45.82
2017-06-14T06:02:27.830Z,45.04
2017-06-14T06:03:27.828Z,44.85
2017-06-14T06:04:27.828Z,44.87
2017-06-14T06:05:27.831Z,44.78
2017-06-14T06:06:27.827Z,44.68
2017-06-14T06:07:27.546Z,44.59
2017-06-14T06:08:27.828Z,44.78
2017-06-14T06:09:27.827Z,45.07
2017-06-14T06:10:27.830Z,44.76
2017-06-14T06:11:27.519Z,44.95
2017-06-14T06:12:27.824Z,44.27
2017-06-14T06:13:27.824Z,44.95
2017-06-14T06:14:27.518Z,44.93
2017-06-14T06:15:27.823Z,44.83
2017-06-14T06:16:27.823Z,45.12
2017-06-14T06:17:27.825Z,45.12
2017-06-14T06:18:27.823Z,45.6
2017-06-14T06:19:27.823Z,45.79
2017-06-14T06:20:27.820Z,45.79
2017-06-14T06:21:27.820Z,45.79
2017-06-14T06:22:27.819Z,45.39
2017-06-14T06:23:27.820Z,45.79
2017-06-14T06:24:27.818Z,45.87
2017-06-14T06:25:27.818Z,45.68
2017-06-14T06:26:27.818Z,45.87
2017-06-14T06:27:27.512Z,45.97
2017-06-14T06:28:27.817Z,46.06
2017-06-14T06:29:27.818Z,46.47
2017-06-14T06:30:27.816Z,45.7
2017-06-14T06:31:27.508Z,45.79
2017-06-14T06:32:27.511Z,45.41
2017-06-14T06:33:27.507Z,45.41
2017-06-14T06:34:27.812Z,44.73
2017-06-14T06:35:27.813Z,44.93
2017-06-14T06:36:27.813Z,44.73
2017-06-14T06:37:27.812Z,44.95
2017-06-14T06:38:27.810Z,44.95
2017-06-14T06:39:27.811Z,45.14
2017-06-14T06:40:27.807Z,45.14
2017-06-14T06:41:27.808Z,45.07
2017-06-14T06:42:27.809Z,45.07
2017-06-14T06:43:27.808Z,44.78
2017-06-14T06:44:27.502Z,44.78
2017-06-14T06:45:27.805Z,43.93
2017-06-14T06:46:27.500Z,44.03
2017-06-14T06:47:27.804Z,42.77
2017-06-14T06:48:27.807Z,42.31
2017-06-14T06:49:27.803Z,42.21
2017-06-14T06:50:27.804Z,42.12
2017-06-14T06:51:27.803Z,41.54
2017-06-14T06:52:27.806Z,42.02
2017-06-14T06:53:27.803Z,41.63
2017-06-14T06:54:27.803Z,42.1
2017-06-14T06:55:27.495Z,42
2017-06-14T06:56:27.801Z,42.48
2017-06-14T06:57:27.801Z,43.04
2017-06-14T06:58:27.803Z,43.81
2017-06-14T06:59:27.490Z,44.01
2017-06-14T07:00:27.800Z,44.08
2017-06-14T07:01:27.799Z,44.18
2017-06-14T07:02:27.798Z,44.56
2017-06-14T07:03:27.796Z,44.56
2017-06-14T07:04:27.491Z,44.56
2017-06-14T07:05:27.796Z,44.85
2017-06-14T07:06:27.835Z,45.14
2017-06-14T07:07:27.796Z,45.12
2017-06-14T07:08:27.489Z,45.41
2017-06-14T07:09:27.795Z,45.6
2017-06-14T07:10:27.486Z,45.51
2017-06-14T07:11:27.793Z,45.79
2017-06-14T07:12:27.794Z,46.08
2017-06-14T07:13:27.487Z,45.7
2017-06-14T07:14:27.791Z,45.89
2017-06-14T07:15:27.793Z,45.99
2017-06-14T07:16:27.793Z,46.08
2017-06-14T07:17:27.485Z,46.28
2017-06-14T07:18:27.792Z,46.47
2017-06-14T07:19:27.792Z,46.66
2017-06-14T07:20:27.790Z,47.14
2017-06-14T07:21:27.788Z,47.24
2017-06-14T07:22:27.479Z,47.41
2017-06-14T07:23:27.787Z,47.6
2017-06-14T07:24:27.784Z,47.6
2017-06-14T07:25:27.479Z,47.12
2017-06-14T07:26:27.784Z,47.22
2017-06-14T07:27:27.781Z,47.6
2017-06-14T07:28:27.782Z,47.6
2017-06-14T07:29:27.784Z,47.8
2017-06-14T07:30:27.780Z,47.89
2017-06-14T07:31:27.780Z,47.99
2017-06-14T07:32:27.783Z,48.08
2017-06-14T07:33:27.780Z,47.99
2017-06-14T07:34:27.777Z,47.89
2017-06-14T07:35:27.469Z,48.08
2017-06-14T07:36:27.776Z,47.89
2017-06-14T07:37:27.774Z,47.99
2017-06-14T07:38:27.773Z,47.44
2017-06-14T07:39:27.469Z,47.12
2017-06-14T07:40:27.775Z,47.44
2017-06-14T07:41:27.774Z,47.05
2017-06-14T07:42:27.772Z,47.34
2017-06-14T07:43:27.772Z,47.63
2017-06-14T07:44:27.771Z,47.51
2017-06-14T07:45:27.771Z,48.21
2017-06-14T07:46:27.768Z,47.34
2017-06-14T07:47:27.766Z,47.44
2017-06-14T07:48:27.765Z,47.44
2017-06-14T07:49:27.766Z,48.11
2017-06-14T07:50:27.767Z,47.82
2017-06-14T07:51:27.766Z,47.92
2017-06-14T07:52:27.763Z,48.01
2017-06-14T07:53:27.762Z,47.92
2017-06-14T07:54:27.762Z,47.63
2017-06-14T07:55:27.761Z,47.36
2017-06-14T07:56:27.762Z,47.36
2017-06-14T07:57:27.759Z,46.49
2017-06-14T07:58:27.759Z,46.2
2017-06-14T07:59:27.758Z,46.49
2017-06-14T08:00:27.756Z,46.59
2017-06-14T08:01:27.757Z,46.59
2017-06-14T08:02:27.448Z,46.49
2017-06-14T08:03:27.753Z,46.59
2017-06-14T08:04:27.756Z,46.11
2017-06-14T08:05:27.757Z,46.2
2017-06-14T08:06:27.752Z,46.4
2017-06-14T08:07:27.447Z,46.3
2017-06-14T08:08:27.751Z,46.2
2017-06-14T08:09:27.752Z,46.18
2017-06-14T08:10:27.446Z,46.2
2017-06-14T08:11:27.449Z,46.59
2017-06-14T08:12:27.747Z,46.69
2017-06-14T08:13:27.748Z,46.59
2017-06-14T08:14:27.439Z,46.4
2017-06-14T08:15:27.440Z,45.36
2017-06-14T08:16:27.444Z,44.78
2017-06-14T08:17:27.746Z,44.6
2017-06-14T08:18:27.745Z,43.93
2017-06-14T08:19:27.748Z,43.76
2017-06-14T08:20:27.437Z,44.05
2017-06-14T08:21:27.436Z,43.66
2017-06-14T08:22:27.741Z,43.49
2017-06-14T08:23:27.739Z,42.72
2017-06-14T08:24:27.740Z,42.93
2017-06-14T08:25:27.743Z,42.25
2017-06-14T08:26:27.739Z,42.16
2017-06-14T08:27:27.739Z,41.87
2017-06-14T08:28:27.737Z,41.97
2017-06-14T08:29:27.738Z,42.07
2017-06-14T08:30:27.734Z,41.77
2017-06-14T08:31:27.432Z,42.04
2017-06-14T08:32:27.736Z,42.52
2017-06-14T08:33:27.736Z,43.08
2017-06-14T08:34:27.736Z,42.79
2017-06-14T08:35:27.734Z,43.37
2017-06-14T08:36:27.734Z,43.66
2017-06-14T08:37:27.424Z,43.28
2017-06-14T08:38:27.733Z,42.99
2017-06-14T08:39:27.732Z,43.2
2017-06-14T08:40:27.731Z,42.62
2017-06-14T08:41:27.734Z,42.25
2017-06-14T08:42:27.730Z,41.87
2017-06-14T08:43:27.733Z,42.08
2017-06-14T08:44:27.729Z,41.41
2017-06-14T08:45:27.731Z,41.33
2017-06-14T08:46:27.731Z,41.33
2017-06-14T08:47:27.424Z,41.35
2017-06-14T08:48:27.420Z,41.06
2017-06-14T08:49:27.729Z,40.86
2017-06-14T08:50:27.728Z,40.77
2017-06-14T08:51:27.730Z,40.38
2017-06-14T08:52:27.728Z,39.9
2017-06-14T08:53:27.730Z,39.8
2017-06-14T08:54:27.728Z,40.36
2017-06-14T08:55:27.740Z,40.17
2017-06-14T08:56:27.731Z,39.97
2017-06-14T08:57:27.727Z,40.07
2017-06-14T08:58:27.726Z,40.36
2017-06-14T08:59:27.417Z,40.46
2017-06-14T09:00:27.725Z,40.36
2017-06-14T09:01:27.725Z,40.36
2017-06-14T09:02:27.727Z,40.48
2017-06-14T09:03:27.419Z,40.09
2017-06-14T09:04:27.725Z,40.36
2017-06-14T09:05:27.423Z,40.46
2017-06-14T09:06:27.725Z,40.28
2017-06-14T09:07:27.727Z,40.38
2017-06-14T09:08:27.724Z,40.01
2017-06-14T09:09:27.728Z,39.62
2017-06-14T09:10:27.730Z,39.43
2017-06-14T09:11:27.722Z,39.53
2017-06-14T09:12:27.419Z,38.85
2017-06-14T09:13:27.724Z,39.06
2017-06-14T09:14:27.722Z,39.65
2017-06-14T09:15:27.726Z,39.74
2017-06-14T09:16:27.725Z,39.43
2017-06-14T09:17:27.724Z,39.43
2017-06-14T09:18:27.725Z,39.53
2017-06-14T09:19:27.725Z,39.34
2017-06-14T09:20:27.725Z,39.62
2017-06-14T09:21:27.725Z,39.62
2017-06-14T09:22:27.724Z,39.82
2017-06-14T09:23:27.726Z,39.72
2017-06-14T09:24:27.722Z,39.43
2017-06-14T09:25:27.721Z,39.62
2017-06-14T09:26:27.728Z,39.72
2017-06-14T09:27:27.726Z,39.62
2017-06-14T09:28:27.724Z,39.62
2017-06-14T09:29:27.724Z,39.82
2017-06-14T09:30:27.724Z,39.72
2017-06-14T09:31:27.739Z,40.01
2017-06-14T09:32:27.724Z,40.21
2017-06-14T09:33:27.725Z,40.5
2017-06-14T09:34:27.724Z,40.4
2017-06-14T09:35:27.724Z,40.03
2017-06-14T09:36:27.722Z,40.01
2017-06-14T09:37:27.414Z,40.99
2017-06-14T09:38:27.724Z,41.08
2017-06-14T09:39:27.723Z,41.08
2017-06-14T09:40:27.722Z,41.17
2017-06-14T09:41:27.728Z,41.17
2017-06-14T09:42:27.417Z,41.08
2017-06-14T09:43:27.741Z,41.08
2017-06-14T09:44:27.722Z,40.99
2017-06-14T09:45:27.720Z,41.27
2017-06-14T09:46:27.721Z,40.89
2017-06-14T09:47:27.725Z,40.89
2017-06-14T09:48:27.720Z,41.27
2017-06-14T09:49:27.722Z,40.99
2017-06-14T09:50:27.721Z,40.69
2017-06-14T09:51:27.722Z,41.06
2017-06-14T09:52:27.720Z,41.35
2017-06-14T09:53:27.722Z,41.64
2017-06-14T09:54:27.723Z,41.83
2017-06-14T09:55:27.412Z,41.74
2017-06-14T09:56:27.414Z,42.03
2017-06-14T09:57:27.717Z,42.03
2017-06-14T09:58:27.720Z,41.66
2017-06-14T09:59:27.717Z,41.47
2017-06-14T10:00:27.720Z,41.27
2017-06-14T10:01:27.718Z,41.37
2017-06-14T10:02:27.719Z,40.4
2017-06-14T10:03:27.721Z,40.4
2017-06-14T10:04:27.719Z,40.38
2017-06-14T10:05:27.721Z,41.17
2017-06-14T10:06:27.720Z,40.79
2017-06-14T10:07:27.720Z,41.35
2017-06-14T10:08:27.719Z,42.03
2017-06-14T10:09:27.416Z,41.93
2017-06-14T10:10:27.412Z,41.83
2017-06-14T10:11:27.413Z,41.45
2017-06-14T10:12:27.720Z,41.35
2017-06-14T10:13:27.717Z,41.35
2017-06-14T10:14:27.411Z,41.91
2017-06-14T10:15:27.416Z,41.93
2017-06-14T10:16:27.718Z,42.2
2017-06-14T10:17:27.409Z,42.32
2017-06-14T10:18:27.717Z,41.93
2017-06-14T10:19:27.409Z,41.64
2017-06-14T10:20:27.718Z,41.08
2017-06-14T10:21:27.717Z,40.69
2017-06-14T10:22:27.719Z,40.59
2017-06-14T10:23:27.716Z,40.79
2017-06-14T10:24:27.715Z,41.27
2017-06-14T10:25:27.411Z,41.2
2017-06-14T10:26:27.411Z,40.23
2017-06-14T10:27:27.715Z,39.84
2017-06-14T10:28:27.717Z,39.74
2017-06-14T10:29:27.715Z,39.94
2017-06-14T10:30:27.408Z,40.23
2017-06-14T10:31:27.713Z,40.23
2017-06-14T10:32:27.716Z,40.54
2017-06-14T10:33:27.716Z,40.25
2017-06-14T10:34:27.718Z,41.02
2017-06-14T10:35:27.756Z,40.54
2017-06-14T10:36:27.716Z,40.44
2017-06-14T10:37:27.716Z,40.54
2017-06-14T10:38:27.714Z,40.44
2017-06-14T10:39:27.714Z,40.34
2017-06-14T10:40:27.718Z,41.02
2017-06-14T10:41:27.406Z,40.25
2017-06-14T10:42:27.715Z,40.44
2017-06-14T10:43:27.717Z,40.05
2017-06-14T10:44:27.715Z,40.15
2017-06-14T10:45:27.716Z,39.95
2017-06-14T10:46:27.716Z,40.25
2017-06-14T10:47:27.713Z,40.44
2017-06-14T10:48:27.714Z,40.34
2017-06-14T10:49:27.718Z,40.34
2017-06-14T10:50:27.716Z,40.15
2017-06-14T10:51:27.717Z,40.44
2017-06-14T10:52:27.715Z,40.05
2017-06-14T10:53:27.715Z,40.44
2017-06-14T10:54:27.411Z,40.54
2017-06-14T10:55:27.718Z,39.95
2017-06-14T10:56:27.714Z,39.57
2017-06-14T10:57:27.715Z,39.59
2017-06-14T10:58:27.719Z,39.98
2017-06-14T10:59:27.410Z,40.26
2017-06-14T11:00:27.711Z,41.05
2017-06-14T11:01:27.716Z,40.95
2017-06-14T11:02:27.716Z,41.43
2017-06-14T11:03:27.410Z,41.82
2017-06-14T11:04:27.407Z,41.82
2017-06-14T11:05:27.713Z,41.63
2017-06-14T11:06:27.715Z,41.33
2017-06-14T11:07:27.916Z,41.82
2017-06-14T11:08:27.714Z,41.99
2017-06-14T11:09:27.714Z,41.99
2017-06-14T11:10:27.404Z,42.09
2017-06-14T11:11:27.718Z,42.29
2017-06-14T11:12:27.713Z,42.48
2017-06-14T11:13:27.713Z,42.48
2017-06-14T11:14:27.408Z,41.99
2017-06-14T11:15:27.716Z,41.99
2017-06-14T11:16:27.713Z,42.57
2017-06-14T11:17:27.409Z,42.19
2017-06-14T11:18:27.408Z,41.99
2017-06-14T11:19:27.714Z,42.19
2017-06-14T11:20:27.712Z,42.09
2017-06-14T11:21:27.713Z,42.67
2017-06-14T11:22:27.710Z,42.85
2017-06-14T11:23:27.712Z,42.75
2017-06-14T11:24:27.713Z,42.77
2017-06-14T11:25:27.709Z,42.65
2017-06-14T11:26:27.711Z,42.77
2017-06-14T11:27:27.403Z,42.67
2017-06-14T11:28:27.711Z,43.35
2017-06-14T11:29:27.711Z,42.75
2017-06-14T11:30:27.401Z,43.23
2017-06-14T11:31:27.404Z,43.62
2017-06-14T11:32:27.710Z,43.52
2017-06-14T11:33:27.404Z,43.91
2017-06-14T11:34:27.707Z,44.01
2017-06-14T11:35:27.711Z,43.72
2017-06-14T11:36:27.708Z,43.82
2017-06-14T11:37:27.707Z,43.82
2017-06-14T11:38:27.739Z,44.3
2017-06-14T11:39:27.707Z,44.96
2017-06-14T11:40:27.401Z,44.96
2017-06-14T11:41:27.706Z,44.4
2017-06-14T11:42:27.705Z,44.2
2017-06-14T11:43:27.703Z,44.2
2017-06-14T11:44:27.402Z,43.91
2017-06-14T11:45:27.707Z,43.91
2017-06-14T11:46:27.705Z,44.4
2017-06-14T11:47:27.705Z,43.91
2017-06-14T11:48:27.703Z,44.1
2017-06-14T11:49:27.399Z,44.1
2017-06-14T11:50:27.704Z,44.88
2017-06-14T11:51:27.703Z,44.68
2017-06-14T11:52:27.703Z,44.68
2017-06-14T11:53:27.705Z,44.98
2017-06-14T11:54:27.705Z,45.07
2017-06-14T11:55:27.703Z,44.98
2017-06-14T11:56:27.703Z,44.68
2017-06-14T11:57:27.702Z,44.98
2017-06-14T11:58:27.697Z,44.98
2017-06-14T11:59:27.697Z,45.17
2017-06-14T12:00:27.699Z,45.07
2017-06-14T12:01:27.701Z,45.15
2017-06-14T12:02:27.698Z,44.86
2017-06-14T12:03:27.698Z,44.86
2017-06-14T12:04:27.698Z,45.15
2017-06-14T12:05:27.900Z,45.05
2017-06-14T12:06:27.699Z,45.05
2017-06-14T12:07:27.698Z,44.76
2017-06-14T12:08:27.698Z,45.34
2017-06-14T12:09:27.387Z,45.05
2017-06-14T12:10:27.694Z,44.86
2017-06-14T12:11:27.393Z,45.05
2017-06-14T12:12:27.386Z,45.05
2017-06-14T12:13:27.387Z,45.15
2017-06-14T12:14:27.693Z,45.17
2017-06-14T12:15:27.385Z,44.88
2017-06-14T12:16:27.691Z,45.17
2017-06-14T12:17:27.691Z,45.27
2017-06-14T12:18:27.690Z,45.27
2017-06-14T12:19:27.691Z,45.37
2017-06-14T12:20:27.688Z,45.54
2017-06-14T12:21:27.691Z,46.12
2017-06-14T12:22:27.688Z,46.22
2017-06-14T12:23:27.689Z,46.12
2017-06-14T12:24:27.687Z,46.31
2017-06-14T12:25:27.687Z,46.22
2017-06-14T12:26:27.685Z,46.31
2017-06-14T12:27:27.685Z,46.51
2017-06-14T12:28:27.381Z,46.31
2017-06-14T12:29:27.685Z,46.22
2017-06-14T12:30:27.687Z,46.41
2017-06-14T12:31:27.687Z,46.22
2017-06-14T12:32:27.683Z,46.12
2017-06-14T12:33:27.686Z,46.31
2017-06-14T12:34:27.682Z,46.31
2017-06-14T12:35:27.683Z,46.41
2017-06-14T12:36:27.376Z,46.7
2017-06-14T12:37:27.678Z,46.6
2017-06-14T12:38:27.679Z,46.8
2017-06-14T12:39:27.680Z,47.02
2017-06-14T12:40:27.677Z,46.31
2017-06-14T12:41:27.679Z,46.92
2017-06-14T12:42:27.676Z,46.24
2017-06-14T12:43:27.677Z,46.53
2017-06-14T12:44:27.677Z,46.14
2017-06-14T12:45:27.675Z,46.33
2017-06-14T12:46:27.369Z,46.53
2017-06-14T12:47:27.367Z,46.24
2017-06-14T12:48:27.673Z,46.14
2017-06-14T12:49:27.367Z,46.24
2017-06-14T12:50:27.670Z,46.33
2017-06-14T12:51:27.672Z,46.33
2017-06-14T12:52:27.366Z,46.53
2017-06-14T12:53:27.669Z,46.82
2017-06-14T12:54:27.671Z,46.62